Time;durP1;ratioP1;P1;durP2;ratioP2;P2;SDS_P1;SDS_P2;PMS_P1;PMS_P2;Temp;Humidity;BMP_temperature;BMP_pressure;BME280_temperature;BME280_humidity;BME280_pressure;Samples;Min_cycle;Max_cycle;Signal;HPM_P1;HPM_P2
2022/01/04 00:00:36;;;;;;;7.53;1.52;;;;;;;8.08;100.00;99927.75;4985540;28;20161;-82
2022/01/04 00:03:02;;;;;;;8.98;1.85;;;;;;;8.00;100.00;99907.56;5013183;28;20033;-82
2022/01/04 00:05:28;;;;;;;6.40;1.58;;;;;;;8.10;100.00;99924.91;5015395;28;20374;-82
2022/01/04 00:07:54;;;;;;;8.07;1.38;;;;;;;8.08;100.00;99926.88;5020479;28;20042;-81
2022/01/04 00:10:22;;;;;;;9.30;2.80;;;;;;;8.05;100.00;99913.50;4994886;28;20030;-82
2022/01/04 00:15:54;;;;;;;2.58;1.60;;;;;;;8.04;100.00;99898.16;4989115;28;20573;-82
2022/01/04 00:18:20;;;;;;;7.78;2.00;;;;;;;7.95;100.00;99885.28;4984953;28;20058;-82
2022/01/04 00:20:47;;;;;;;7.32;2.10;;;;;;;7.90;100.00;99893.84;4983172;28;20077;-82
2022/01/04 00:23:14;;;;;;;8.07;1.75;;;;;;;7.88;100.00;99883.06;5018012;28;20026;-82
2022/01/04 00:25:40;;;;;;;6.50;1.73;;;;;;;7.91;100.00;99890.13;4991728;28;20125;-81
2022/01/04 00:28:07;;;;;;;7.10;1.60;;;;;;;7.91;100.00;99891.00;5004585;28;20034;-81
2022/01/04 00:30:37;;;;;;;7.00;1.90;;;;;;;7.87;100.00;99877.75;4996767;28;20026;-82
2022/01/04 00:33:04;;;;;;;4.78;1.73;;;;;;;7.86;100.00;99867.84;5023663;28;20030;-82
2022/01/04 00:35:30;;;;;;;3.90;1.75;;;;;;;7.84;100.00;99867.13;5004369;28;20030;-82
2022/01/04 00:37:57;;;;;;;4.53;1.70;;;;;;;7.77;100.00;99855.84;5021189;28;20033;-82
2022/01/04 00:40:24;;;;;;;3.60;1.90;;;;;;;7.80;100.00;99843.84;4991358;28;20050;-81
2022/01/04 00:42:49;;;;;;;9.65;1.90;;;;;;;7.67;100.00;99838.53;5006536;28;20470;-82
2022/01/04 00:45:16;;;;;;;4.25;1.60;;;;;;;7.76;100.00;99836.94;5005771;28;20050;-81
2022/01/04 00:49:10;;;;;;;7.40;1.85;;;;;;;7.72;100.00;99831.72;4992601;28;20566;-82
2022/01/04 00:50:32;;;;;;;8.45;2.00;;;;;;;7.80;100.00;99822.91;5016015;28;20040;-82
2022/01/04 00:52:59;;;;;;;4.18;1.75;;;;;;;7.71;100.00;99827.25;4991941;28;20101;-82
2022/01/04 00:55:25;;;;;;;3.55;1.52;;;;;;;7.75;100.00;99822.41;5015063;28;20050;-82
2022/01/04 00:57:51;;;;;;;7.40;2.28;;;;;;;7.73;100.00;99821.69;5001970;28;20027;-82
2022/01/04 01:00:18;;;;;;;3.72;1.65;;;;;;;7.70;100.00;99821.94;5012231;28;20041;-82
2022/01/04 01:02:47;;;;;;;5.13;1.92;;;;;;;7.65;100.00;99814.16;5007336;28;20040;-82
2022/01/04 01:05:14;;;;;;;6.20;1.95;;;;;;;7.70;100.00;99811.91;5013042;28;20124;-82
2022/01/04 01:07:40;;;;;;;3.50;1.95;;;;;;;7.70;100.00;99814.63;5002609;28;20029;-82
2022/01/04 01:12:53;;;;;;;11.20;2.03;;;;;;;7.67;100.00;99806.75;5003485;28;20030;-82
2022/01/04 01:15:19;;;;;;;3.95;2.40;;;;;;;7.69;100.00;99802.03;5001326;28;20095;-81
2022/01/04 01:17:45;;;;;;;11.32;2.90;;;;;;;7.59;100.00;99789.28;5002800;28;20110;-82
2022/01/04 01:20:11;;;;;;;5.68;2.20;;;;;;;7.66;100.00;99799.56;5007063;28;20083;-82
2022/01/04 01:22:37;;;;;;;7.78;2.63;;;;;;;7.64;100.00;99804.28;5002525;28;20038;-82
2022/01/04 01:25:04;;;;;;;9.40;3.08;;;;;;;7.67;100.00;99794.94;5002783;28;20042;-82
2022/01/04 01:27:30;;;;;;;6.50;2.35;;;;;;;7.64;100.00;99795.22;5008304;28;20034;-83
2022/01/04 01:29:56;;;;;;;8.27;2.50;;;;;;;7.63;100.00;99791.63;5018185;28;20034;-82
2022/01/04 01:32:21;;;;;;;4.53;2.58;;;;;;;7.59;100.00;99792.91;5007955;28;20069;-83
2022/01/04 01:34:47;;;;;;;7.32;3.25;;;;;;;7.60;100.00;99791.03;5000124;28;20023;-82
2022/01/04 01:37:12;;;;;;;5.95;2.85;;;;;;;7.63;100.00;99785.31;4983940;28;20081;-82
2022/01/04 01:39:37;;;;;;;6.72;3.05;;;;;;;7.62;100.00;99783.59;5017901;28;20068;-82
2022/01/04 01:42:04;;;;;;;7.90;2.40;;;;;;;7.63;100.00;99779.88;4983836;28;20034;-82
2022/01/04 01:44:33;;;;;;;5.50;2.58;;;;;;;7.57;100.00;99770.34;5002846;28;20038;-83
2022/01/04 01:46:59;;;;;;;9.00;3.10;;;;;;;7.58;100.00;99763.91;5009461;28;20061;-82
2022/01/04 01:49:25;;;;;;;7.05;2.90;;;;;;;7.60;100.00;99767.38;4998560;28;20470;-83
2022/01/04 01:51:51;;;;;;;9.75;3.58;;;;;;;7.52;100.00;99750.81;5001447;28;20031;-82
2022/01/04 01:54:16;;;;;;;7.03;3.25;;;;;;;7.58;100.00;99758.47;5001231;28;20038;-83
2022/01/04 01:56:42;;;;;;;6.72;3.35;;;;;;;7.55;100.00;99756.00;5000850;28;20026;-83
2022/01/04 01:59:08;;;;;;;9.80;3.40;;;;;;;7.55;100.00;99750.56;4987644;28;20121;-83
2022/01/04 02:01:33;;;;;;;6.28;3.42;;;;;;;7.52;100.00;99753.53;5005942;28;20077;-82
2022/01/04 02:03:59;;;;;;;7.65;3.42;;;;;;;7.52;100.00;99750.81;4994314;28;20029;-82
2022/01/04 02:06:29;;;;;;;11.05;3.70;;;;;;;7.57;100.00;99748.56;4993245;28;20041;-82
2022/01/04 02:08:59;;;;;;;13.05;4.03;;;;;;;7.56;100.00;99749.56;5003609;28;20046;-82
2022/01/04 02:11:28;;;;;;;9.02;3.53;;;;;;;7.58;100.00;99747.56;5004232;28;20511;-82
2022/01/04 02:13:54;;;;;;;7.72;4.03;;;;;;;7.52;100.00;99739.91;5005161;28;20034;-81
2022/01/04 02:16:20;;;;;;;8.80;3.88;;;;;;;7.50;100.00;99731.88;5005407;28;20037;-82
2022/01/04 02:18:46;;;;;;;17.20;5.20;;;;;;;7.58;100.00;99738.56;5018469;28;20030;-82
2022/01/04 02:21:11;;;;;;;8.95;3.95;;;;;;;7.55;100.00;99723.31;5002517;28;20038;-81
2022/01/04 02:23:37;;;;;;;13.13;4.45;;;;;;;7.49;100.00;99716.53;5016472;28;20065;-81
2022/01/04 02:26:03;;;;;;;13.63;4.20;;;;;;;7.55;100.00;99721.44;5017539;28;20033;-81
2022/01/04 02:28:29;;;;;;;8.15;3.97;;;;;;;7.50;100.00;99707.34;4998448;28;20030;-82
2022/01/04 02:30:55;;;;;;;7.95;4.18;;;;;;;7.50;100.00;99701.06;5017351;28;20026;-81
2022/01/04 02:33:21;;;;;;;11.48;4.70;;;;;;;7.53;100.00;99711.69;5014561;28;20049;-81
2022/01/04 02:35:47;;;;;;;7.30;4.75;;;;;;;7.53;100.00;99715.28;5013086;28;20117;-81
2022/01/04 02:38:13;;;;;;;9.23;4.60;;;;;;;7.50;100.00;99715.53;4990037;28;20042;-82
2022/01/04 02:40:39;;;;;;;9.60;4.25;;;;;;;7.50;100.00;99710.09;5009278;28;20107;-82
2022/01/04 02:43:05;;;;;;;7.57;4.85;;;;;;;7.51;100.00;99711.81;4995268;28;20036;-82
2022/01/04 02:45:30;;;;;;;14.73;5.65;;;;;;;7.49;100.00;99711.09;5018649;28;20050;-82
2022/01/04 02:47:56;;;;;;;11.93;5.55;;;;;;;7.48;100.00;99703.06;5002361;28;20045;-82
2022/01/04 02:50:22;;;;;;;12.30;6.30;;;;;;;7.50;100.00;99696.47;5006199;28;20039;-82
2022/01/04 02:52:48;;;;;;;9.95;5.25;;;;;;;7.48;100.00;99709.34;4986377;28;20026;-81
2022/01/04 02:55:15;;;;;;;10.30;5.72;;;;;;;7.43;100.00;99689.81;5016302;28;20057;-82
2022/01/04 02:57:41;;;;;;;16.58;6.10;;;;;;;7.45;100.00;99695.13;5004415;28;20500;-82
2022/01/04 03:00:13;;;;;;;11.65;5.32;;;;;;;7.43;100.00;99678.03;5007766;28;20109;-82
2022/01/04 03:02:39;;;;;;;16.75;6.43;;;;;;;7.44;100.00;99679.78;5010263;28;20056;-82
2022/01/04 03:05:06;;;;;;;11.80;5.72;;;;;;;7.34;100.00;99668.81;4990726;28;20030;-82
2022/01/04 03:07:32;;;;;;;11.40;6.88;;;;;;;7.35;100.00;99668.69;5009320;28;20125;-81
2022/01/04 03:09:58;;;;;;;13.18;6.43;;;;;;;7.35;100.00;99662.38;4998241;28;20034;-82
2022/01/04 03:12:23;;;;;;;14.43;6.63;;;;;;;7.37;100.00;99660.38;5017694;28;20420;-81
2022/01/04 03:14:49;;;;;;;17.25;7.47;;;;;;;7.32;100.00;99649.88;5033485;28;20049;-82
2022/01/04 03:17:14;;;;;;;11.95;6.57;;;;;;;7.36;100.00;99650.47;5003828;28;20030;-82
2022/01/04 03:19:40;;;;;;;18.13;6.63;;;;;;;7.34;100.00;99650.59;5012646;28;20042;-82
2022/01/04 03:22:05;;;;;;;17.70;7.15;;;;;;;7.38;100.00;99653.94;5003820;28;20053;-82
2022/01/04 03:24:31;;;;;;;15.07;7.00;;;;;;;7.34;100.00;99638.84;5009561;28;20034;-82
2022/01/04 03:26:56;;;;;;;17.63;8.32;;;;;;;7.34;100.00;99622.53;5002558;28;20026;-82
2022/01/04 03:29:23;;;;;;;19.63;7.80;;;;;;;7.38;100.00;99624.00;5019173;28;20029;-82
2022/01/04 03:31:49;;;;;;;13.13;7.65;;;;;;;7.35;100.00;99618.81;5000224;28;20149;-82
2022/01/04 03:34:15;;;;;;;11.10;7.30;;;;;;;7.34;100.00;99617.06;4999734;28;20030;-82
2022/01/04 03:36:41;;;;;;;14.32;7.18;;;;;;;7.33;100.00;99607.19;4969665;28;20034;-82
2022/01/04 03:39:08;;;;;;;19.73;8.05;;;;;;;7.38;100.00;99604.94;5003149;28;20137;-82
2022/01/04 03:41:38;;;;;;;13.90;7.22;;;;;;;7.35;100.00;99592.44;4985746;28;20046;-82
2022/01/04 03:44:07;;;;;;;17.40;7.30;;;;;;;7.40;100.00;99594.78;5006672;28;20030;-82
2022/01/04 03:46:33;;;;;;;14.25;7.75;;;;;;;7.37;100.00;99584.16;4994506;28;20185;-82
2022/01/04 03:48:59;;;;;;;15.40;7.47;;;;;;;7.34;100.00;99579.81;4987810;28;20051;-82
2022/01/04 03:51:25;;;;;;;11.68;7.18;;;;;;;7.29;100.00;99570.31;5001641;28;20046;-82
2022/01/04 03:53:50;;;;;;;17.80;8.90;;;;;;;7.24;100.00;99551.66;5006630;28;20057;-82
2022/01/04 03:56:16;;;;;;;13.52;7.75;;;;;;;7.29;100.00;99568.47;5014391;28;20043;-82
2022/01/04 03:58:42;;;;;;;16.90;8.05;;;;;;;7.30;100.00;99563.91;4987230;28;20022;-82
2022/01/04 04:01:08;;;;;;;16.38;8.40;;;;;;;7.34;100.00;99558.03;4993524;28;20027;-81
2022/01/04 04:03:34;;;;;;;22.77;8.82;;;;;;;7.34;100.00;99554.47;5021554;28;20045;-82
2022/01/04 04:06:00;;;;;;;18.35;8.43;;;;;;;7.34;100.00;99538.13;5018289;28;20030;-82
2022/01/04 04:08:26;;;;;;;16.85;8.73;;;;;;;7.31;100.00;99531.09;5004110;28;20030;-81
2022/01/04 04:10:52;;;;;;;26.35;10.13;;;;;;;7.30;100.00;99531.22;5012589;28;20033;-82
2022/01/04 04:13:18;;;;;;;15.93;9.70;;;;;;;7.31;100.00;99522.03;5016957;28;20045;-82
2022/01/04 04:15:44;;;;;;;14.55;8.80;;;;;;;7.34;100.00;99521.78;4990281;28;20042;-82
2022/01/04 04:18:10;;;;;;;15.30;8.25;;;;;;;7.29;100.00;99511.28;5023526;28;20029;-81
2022/01/04 04:20:37;;;;;;;15.57;8.07;;;;;;;7.32;100.00;99511.03;5022062;28;20061;-81
2022/01/04 04:23:04;;;;;;;18.88;8.90;;;;;;;7.34;100.00;99505.44;5017009;28;20026;-81
2022/01/04 04:25:30;;;;;;;17.55;8.77;;;;;;;7.31;100.00;99508.44;4999950;28;20030;-82
2022/01/04 04:27:56;;;;;;;19.80;9.27;;;;;;;7.27;100.00;99502.41;5020145;28;20358;-82
2022/01/04 04:30:22;;;;;;;19.08;9.98;;;;;;;7.29;100.00;99488.66;5006095;28;20034;-82
2022/01/04 04:32:48;;;;;;;20.70;10.93;;;;;;;7.25;100.00;99481.78;5012360;28;20026;-82
2022/01/04 04:35:14;;;;;;;21.77;11.85;;;;;;;7.26;100.00;99475.31;5019196;28;20036;-82
2022/01/04 04:37:39;;;;;;;23.77;13.43;;;;;;;7.33;100.00;99498.28;5021215;28;20049;-81
2022/01/04 04:40:06;;;;;;;30.73;14.75;;;;;;;7.27;100.00;99486.06;5004272;28;20038;-82
2022/01/04 04:42:32;;;;;;;25.58;14.25;;;;;;;7.28;100.00;99490.53;5018738;28;20113;-82
2022/01/04 04:44:57;;;;;;;28.38;15.05;;;;;;;7.26;100.00;99495.22;4990693;28;20085;-82
2022/01/04 04:47:22;;;;;;;26.50;14.68;;;;;;;7.26;100.00;99488.91;5026047;28;20075;-82
2022/01/04 04:49:48;;;;;;;24.60;14.60;;;;;;;7.25;100.00;99479.91;5005949;28;20412;-82
2022/01/04 04:52:13;;;;;;;25.33;13.80;;;;;;;7.31;100.00;99481.22;5015232;28;20068;-82
2022/01/04 04:54:39;;;;;;;22.95;12.75;;;;;;;7.28;100.00;99479.63;5012992;28;20059;-82
2022/01/04 04:57:04;;;;;;;25.38;12.70;;;;;;;7.28;100.00;99476.03;5017513;28;20073;-82
2022/01/04 04:59:30;;;;;;;21.13;10.25;;;;;;;7.25;100.00;99488.06;5006206;28;20042;-82
2022/01/04 05:01:56;;;;;;;22.27;10.05;;;;;;;7.26;100.00;99494.38;5019785;28;20021;-81
2022/01/04 05:04:21;;;;;;;19.40;10.98;;;;;;;7.29;100.00;99484.06;5001275;28;20033;-82
2022/01/04 05:06:47;;;;;;;25.92;10.13;;;;;;;7.26;100.00;99486.19;4997392;28;20022;-82
2022/01/04 05:09:12;;;;;;;19.13;10.73;;;;;;;7.25;100.00;99492.66;4989336;28;20030;-82
2022/01/04 05:11:38;;;;;;;20.23;10.50;;;;;;;7.29;100.00;99499.53;5004635;28;20034;-82
2022/01/04 05:14:04;;;;;;;26.88;11.43;;;;;;;7.28;100.00;99492.38;5007916;28;20041;-82
2022/01/04 05:16:29;;;;;;;22.23;10.70;;;;;;;7.34;100.00;99498.13;5004799;28;20107;-82
2022/01/04 05:18:55;;;;;;;28.05;11.32;;;;;;;7.25;100.00;99487.22;5007490;28;20599;-81
2022/01/04 05:21:20;;;;;;;23.13;11.30;;;;;;;7.31;100.00;99492.97;5009050;28;20033;-80
2022/01/04 05:23:46;;;;;;;24.75;11.15;;;;;;;7.31;100.00;99486.66;5001679;28;20030;-81
2022/01/04 05:26:12;;;;;;;19.80;10.25;;;;;;;7.38;100.00;99479.69;4995805;28;20105;-80
2022/01/04 05:28:41;;;;;;;24.20;11.80;;;;;;;7.28;100.00;99463.31;5003467;28;20018;-81
2022/01/04 05:31:07;;;;;;;21.50;11.00;;;;;;;7.29;100.00;99472.31;4992819;28;20058;-81
2022/01/04 05:33:33;;;;;;;24.58;11.50;;;;;;;7.29;100.00;99459.56;5016594;28;20449;-81
2022/01/04 05:36:00;;;;;;;24.58;10.82;;;;;;;7.29;100.00;99455.97;5020505;28;20064;-81
2022/01/04 05:38:25;;;;;;;30.25;11.73;;;;;;;7.28;100.00;99448.81;5012945;28;20098;-81
2022/01/04 05:40:50;;;;;;;23.88;11.23;;;;;;;7.24;100.00;99448.22;5010893;28;20053;-82
2022/01/04 05:43:16;;;;;;;24.60;11.35;;;;;;;7.22;100.00;99441.19;5010891;28;20089;-82
2022/01/04 05:45:41;;;;;;;26.20;11.23;;;;;;;7.24;100.00;99440.06;4986071;28;20062;-81
2022/01/04 05:48:07;;;;;;;27.88;11.82;;;;;;;7.22;100.00;99424.88;5008722;28;20090;-81
2022/01/04 05:50:34;;;;;;;23.38;12.05;;;;;;;7.22;100.00;99419.44;5018135;28;20485;-82
2022/01/04 05:53:00;;;;;;;26.75;12.57;;;;;;;7.21;100.00;99431.31;5020123;28;20025;-83
2022/01/04 05:55:26;;;;;;;24.83;12.15;;;;;;;7.22;100.00;99431.16;4985055;28;20105;-82
2022/01/04 05:57:51;;;;;;;25.93;12.63;;;;;;;7.17;100.00;99431.56;5013239;28;20023;-81
2022/01/04 06:00:18;;;;;;;29.40;13.25;;;;;;;7.23;100.00;99443.78;5019446;28;20041;-82
2022/01/04 06:02:43;;;;;;;25.60;12.55;;;;;;;7.22;100.00;99428.44;4994371;28;20076;-82
2022/01/04 06:05:09;;;;;;;26.85;12.90;;;;;;;7.25;100.00;99432.78;4998754;28;20022;-81
2022/01/04 06:07:36;;;;;;;27.00;12.98;;;;;;;7.26;100.00;99431.75;5016747;28;20092;-81
2022/01/04 06:10:03;;;;;;;26.80;13.20;;;;;;;7.25;100.00;99424.59;4998018;28;20039;-80
2022/01/04 06:15:06;;;;;;;25.20;13.15;;;;;;;7.25;100.00;99421.88;5002323;28;20044;-79
2022/01/04 06:17:32;;;;;;;27.75;13.95;;;;;;;7.25;100.00;99425.47;5009941;28;20030;-81
2022/01/04 06:19:58;;;;;;;29.00;12.93;;;;;;;7.21;100.00;99412.25;5007937;28;20038;-80
2022/01/04 06:22:26;;;;;;;31.42;14.05;;;;;;;7.23;100.00;99418.41;5008428;28;20038;-80
2022/01/04 06:24:53;;;;;;;38.17;16.10;;;;;;;7.14;100.00;99398.31;5004270;28;20449;-80
2022/01/04 06:27:18;;;;;;;28.85;13.02;;;;;;;7.16;100.00;99409.94;5010115;28;20657;-79
2022/01/04 06:29:44;;;;;;;29.15;13.40;;;;;;;7.18;100.00;99414.25;5014955;28;20030;-80
2022/01/04 06:32:10;;;;;;;28.60;12.82;;;;;;;7.13;100.00;99404.75;5001747;28;20049;-79
2022/01/04 06:34:38;;;;;;;28.17;13.23;;;;;;;7.14;100.00;99401.03;5007143;28;20038;-81
2022/01/04 06:37:04;;;;;;;35.70;14.57;;;;;;;7.12;100.00;99389.44;5006535;28;20046;-81
2022/01/04 06:39:30;;;;;;;32.60;14.20;;;;;;;7.12;100.00;99384.84;5002300;28;20040;-81
2022/01/04 06:41:55;;;;;;;31.80;13.98;;;;;;;7.06;100.00;99388.09;5006955;28;20116;-80
2022/01/04 06:44:21;;;;;;;32.28;14.02;;;;;;;7.08;100.00;99394.25;5008392;28;20029;-80
2022/01/04 06:46:47;;;;;;;32.55;14.30;;;;;;;7.08;100.00;99388.81;5001080;28;20106;-80
2022/01/04 06:49:14;;;;;;;33.05;13.90;;;;;;;7.05;100.00;99388.25;5018058;28;20372;-80
2022/01/04 06:51:41;;;;;;;36.20;14.23;;;;;;;7.04;100.00;99391.97;5012494;28;20054;-80
2022/01/04 06:54:10;;;;;;;32.80;14.80;;;;;;;7.01;100.00;99398.53;5017571;28;20082;-81
2022/01/04 06:56:37;;;;;;;34.35;14.23;;;;;;;7.01;100.00;99401.25;5000843;28;20513;-80
2022/01/04 06:59:04;;;;;;;29.25;13.98;;;;;;;6.99;100.00;99389.66;5002403;28;20027;-80
2022/01/04 07:01:29;;;;;;;41.22;14.88;;;;;;;6.99;100.00;99363.28;4998840;28;20034;-81
2022/01/04 07:03:55;;;;;;;39.97;15.07;;;;;;;7.01;100.00;99367.75;4982946;28;20053;-81
2022/01/04 07:06:20;;;;;;;33.85;13.48;;;;;;;6.94;100.00;99365.56;5011020;28;20084;-81
2022/01/04 07:08:46;;;;;;;36.53;15.55;;;;;;;6.90;100.00;99361.38;5014157;28;20068;-81
2022/01/04 07:11:12;;;;;;;34.72;14.55;;;;;;;6.93;100.00;99366.53;4991251;28;20033;-81
2022/01/04 07:13:37;;;;;;;31.67;14.07;;;;;;;6.80;100.00;99353.19;4991897;28;20112;-80
2022/01/04 07:16:03;;;;;;;36.38;14.07;;;;;;;6.90;100.00;99366.81;5013346;28;20064;-81
2022/01/04 07:18:28;;;;;;;36.83;15.02;;;;;;;6.91;100.00;99370.41;5016624;28;20473;-81
2022/01/04 07:20:54;;;;;;;36.75;14.43;;;;;;;6.89;100.00;99356.09;5013074;28;20494;-81
2022/01/04 07:23:19;;;;;;;35.55;15.55;;;;;;;6.98;100.00;99355.25;5010755;28;20033;-82
2022/01/04 07:25:44;;;;;;;41.28;14.23;;;;;;;6.88;100.00;99354.38;5017001;28;20089;-80
2022/01/04 07:28:10;;;;;;;33.67;13.95;;;;;;;6.91;100.00;99365.84;5017092;28;20117;-81
2022/01/04 07:30:36;;;;;;;34.65;14.32;;;;;;;6.94;100.00;99362.00;5001154;28;20152;-81
2022/01/04 07:33:02;;;;;;;35.13;14.63;;;;;;;6.86;100.00;99351.78;5016114;28;20031;-81
2022/01/04 07:35:27;;;;;;;36.83;13.98;;;;;;;6.93;100.00;99361.09;5001692;28;20038;-81
2022/01/04 07:37:53;;;;;;;39.08;15.07;;;;;;;6.92;100.00;99348.53;5003546;28;20038;-81
2022/01/04 07:40:20;;;;;;;36.28;13.43;;;;;;;6.87;100.00;99329.03;5001735;28;20053;-81
2022/01/04 07:42:46;;;;;;;37.38;13.55;;;;;;;6.83;100.00;99324.00;4995728;28;20046;-81
2022/01/04 07:45:12;;;;;;;35.80;13.30;;;;;;;6.78;100.00;99308.91;5017809;28;20045;-81
2022/01/04 07:47:37;;;;;;;41.95;15.50;;;;;;;6.84;100.00;99334.72;5004748;28;20570;-81
2022/01/04 07:50:04;;;;;;;39.70;15.95;;;;;;;6.89;100.00;99345.22;5019273;28;20024;-81
2022/01/04 07:52:29;;;;;;;39.33;15.10;;;;;;;6.89;100.00;99335.19;5012802;28;20489;-81
2022/01/04 07:54:55;;;;;;;38.15;14.48;;;;;;;6.88;100.00;99338.88;5016738;28;20091;-79
2022/01/04 07:57:20;;;;;;;39.22;14.60;;;;;;;6.85;100.00;99332.88;5005649;28;20120;-81
2022/01/04 07:59:45;;;;;;;43.92;14.75;;;;;;;6.88;100.00;99328.00;5024589;28;20494;-79
2022/01/04 08:02:11;;;;;;;34.28;14.23;;;;;;;6.87;100.00;99339.03;5020944;28;20477;-80
2022/01/04 08:04:36;;;;;;;35.92;14.43;;;;;;;6.95;100.00;99350.97;5020718;28;20042;-82
2022/01/04 08:07:02;;;;;;;38.75;15.07;;;;;;;6.91;100.00;99338.63;5022620;28;20041;-82
2022/01/04 08:09:28;;;;;;;37.70;13.90;;;;;;;6.87;100.00;99325.41;5019483;28;20060;-82
2022/01/04 08:11:54;;;;;;;41.13;15.88;;;;;;;6.87;100.00;99325.41;5022563;28;20037;-80
2022/01/04 08:14:19;;;;;;;43.72;15.82;;;;;;;6.90;100.00;99325.16;5020063;28;20041;-81
2022/01/04 08:16:45;;;;;;;41.35;15.02;;;;;;;6.93;100.00;99320.28;5012847;28;20124;-81
2022/01/04 08:19:10;;;;;;;43.15;13.93;;;;;;;6.93;100.00;99327.59;5015062;28;20034;-82
2022/01/04 08:21:36;;;;;;;41.83;14.90;;;;;;;6.92;100.00;99323.16;5012339;28;20034;-81
2022/01/04 08:24:02;;;;;;;38.38;12.68;;;;;;;6.93;100.00;99323.00;5010437;28;21311;-81
2022/01/04 08:26:29;;;;;;;32.13;13.43;;;;;;;6.97;100.00;99332.66;5004739;28;20155;-82
2022/01/04 08:28:54;;;;;;;36.35;14.25;;;;;;;6.98;100.00;99328.06;4997320;28;20038;-81
2022/01/04 08:31:20;;;;;;;37.67;14.25;;;;;;;6.97;100.00;99326.34;5033849;28;20033;-81
2022/01/04 08:33:45;;;;;;;38.95;14.18;;;;;;;7.04;100.00;99324.78;5008198;28;20094;-80
2022/01/04 08:36:15;;;;;;;40.28;14.35;;;;;;;7.02;100.00;99321.34;5005221;28;20601;-81
2022/01/04 08:38:41;;;;;;;41.45;13.05;;;;;;;7.01;100.00;99314.19;5019846;28;20100;-80
2022/01/04 08:41:06;;;;;;;44.97;13.98;;;;;;;6.99;100.00;99314.31;5011211;28;20037;-81
2022/01/04 08:43:32;;;;;;;33.80;12.93;;;;;;;7.02;100.00;99326.81;5029375;28;20093;-81
2022/01/04 08:45:57;;;;;;;34.47;13.43;;;;;;;7.08;100.00;99328.09;5016803;28;20420;-82
2022/01/04 08:48:23;;;;;;;44.80;14.80;;;;;;;7.07;100.00;99335.41;5019495;28;20086;-81
2022/01/04 08:50:49;;;;;;;34.88;13.45;;;;;;;7.06;100.00;99347.28;5012934;28;20100;-79
2022/01/04 08:53:15;;;;;;;37.42;13.77;;;;;;;7.09;100.00;99354.31;5014868;28;20045;-82
2022/01/04 08:55:41;;;;;;;35.67;13.05;;;;;;;7.11;100.00;99352.31;5003606;28;20030;-81
2022/01/04 08:58:07;;;;;;;35.15;13.70;;;;;;;7.08;100.00;99363.47;5015109;28;20034;-81
2022/01/04 09:00:33;;;;;;;35.88;13.43;;;;;;;7.07;100.00;99370.78;5027182;28;20045;-81
2022/01/04 09:03:00;;;;;;;42.83;13.85;;;;;;;7.04;100.00;99375.66;5012039;28;20025;-80
2022/01/04 09:05:26;;;;;;;36.13;12.00;;;;;;;7.10;100.00;99384.13;5014572;28;20092;-81
2022/01/04 09:07:52;;;;;;;43.95;14.07;;;;;;;7.11;100.00;99380.38;5010286;28;20484;-80
2022/01/04 09:10:18;;;;;;;41.10;14.02;;;;;;;7.37;100.00;99374.50;5019491;28;20018;-80
2022/01/04 09:18:43;;;;;;;36.90;13.40;;;;;;;7.08;100.00;99361.59;5011506;28;20068;-81
2022/01/04 09:20:50;;;;;;;36.95;13.43;;;;;;;7.11;100.00;99352.31;5010199;28;20045;-82
2022/01/04 09:23:18;;;;;;;39.05;13.93;;;;;;;7.14;100.00;99352.06;5006801;28;20389;-81
2022/01/04 09:25:45;;;;;;;35.85;14.20;;;;;;;7.13;100.00;99353.03;4995319;28;20045;-81
2022/01/04 09:28:11;;;;;;;46.42;14.52;;;;;;;7.12;100.00;99352.19;5002302;28;20490;-81
2022/01/04 09:30:38;;;;;;;43.08;15.45;;;;;;;7.14;100.00;99352.91;5011818;28;20053;-81
2022/01/04 09:33:05;;;;;;;42.85;15.27;;;;;;;7.21;100.00;99355.09;5015117;28;20057;-82
2022/01/04 09:35:36;;;;;;;37.15;13.82;;;;;;;7.13;100.00;99359.38;5001691;28;20036;-82
2022/01/04 09:38:05;;;;;;;47.83;14.93;;;;;;;7.18;100.00;99370.69;5002753;28;20042;-82
2022/01/04 09:40:32;;;;;;;55.28;15.38;;;;;;;7.20;100.00;99370.56;5018024;28;20035;-82
2022/01/04 09:42:57;;;;;;;41.53;16.30;;;;;;;7.21;100.00;99374.13;5019824;28;20054;-83
2022/01/04 09:45:23;;;;;;;39.78;15.77;;;;;;;7.24;100.00;99373.88;5015044;28;20069;-82
2022/01/04 09:47:49;;;;;;;44.28;16.23;;;;;;;7.21;100.00;99361.38;4995367;28;20048;-84
2022/01/04 09:50:15;;;;;;;45.42;15.70;;;;;;;7.21;100.00;99365.97;5004910;28;20107;-83
2022/01/04 09:52:47;;;;;;;46.67;17.15;;;;;;;7.20;100.00;99359.69;4991103;28;20060;-82
2022/01/04 09:55:15;;;;;;;46.80;16.17;;;;;;;7.25;100.00;99362.00;4991389;28;20035;-83
2022/01/04 09:57:42;;;;;;;44.53;16.38;;;;;;;7.25;100.00;99364.72;5012461;28;20045;-82
2022/01/04 10:00:09;;;;;;;52.17;16.95;;;;;;;7.32;100.00;99380.34;5019848;28;20117;-83
2022/01/04 10:02:35;;;;;;;41.85;16.90;;;;;;;7.27;100.00;99373.59;5017535;28;20042;-82
2022/01/04 10:05:16;;;;;;;45.80;15.95;;;;;;;7.30;100.00;99376.06;5010950;28;20032;-82
2022/01/04 10:07:45;;;;;;;51.55;16.63;;;;;;;7.35;100.00;99376.50;5004357;28;20088;-82
2022/01/04 10:10:13;;;;;;;49.78;16.33;;;;;;;7.30;100.00;99379.63;5013204;28;20096;-82
2022/01/04 10:13:01;;;;;;;53.03;18.35;;;;;;;7.33;100.00;99367.63;5004908;28;20030;-82
2022/01/04 10:15:48;;;;;;;58.70;18.98;;;;;;;7.36;100.00;99367.31;5003144;28;20065;-82
2022/01/04 10:18:14;;;;;;;55.05;18.05;;;;;;;7.41;100.00;99375.06;5008319;28;20030;-83
2022/01/04 10:20:45;;;;;;;49.13;17.08;;;;;;;7.39;100.00;99363.47;4993014;28;20088;-82
2022/01/04 10:23:16;;;;;;;53.63;18.27;;;;;;;7.35;100.00;99347.41;5009597;28;20041;-80
2022/01/04 10:25:43;;;;;;;52.20;17.48;;;;;;;7.34;100.00;99333.91;4991386;28;20041;-82
2022/01/04 10:28:08;;;;;;;65.60;20.40;;;;;;;7.40;100.00;99335.25;5009456;28;20489;-81
2022/01/04 10:30:39;;;;;;;63.60;20.90;;;;;;;7.41;100.00;99329.66;4994327;28;20057;-81
2022/01/04 10:33:11;;;;;;;70.13;20.52;;;;;;;7.43;100.00;99324.94;5011556;28;20037;-80
2022/01/04 10:35:45;;;;;;;61.47;21.38;;;;;;;7.43;100.00;99327.66;5009440;28;20061;-81
2022/01/04 10:38:21;;;;;;;56.95;19.10;;;;;;;7.44;100.00;99325.78;5001830;28;20026;-82
2022/01/04 10:41:00;;;;;;;64.28;22.08;;;;;;;7.46;100.00;99335.53;4993467;28;20030;-82
2022/01/04 10:43:28;;;;;;;74.88;21.85;;;;;;;7.44;100.00;99337.53;4999930;28;20053;-82
2022/01/04 10:45:55;;;;;;;71.70;23.50;;;;;;;7.52;100.00;99342.28;5018089;28;20053;-82
2022/01/04 10:48:24;;;;;;;66.07;21.17;;;;;;;7.50;100.00;99331.53;5036015;28;20512;-82
2022/01/04 10:51:05;;;;;;;70.15;22.98;;;;;;;7.54;100.00;99332.09;5012366;28;20030;-81
2022/01/04 10:53:36;;;;;;;72.78;23.98;;;;;;;7.50;100.00;99331.53;5001031;28;20034;-82
2022/01/04 10:56:12;;;;;;;75.20;22.15;;;;;;;7.53;100.00;99325.81;4986018;28;20042;-83
2022/01/04 10:58:40;;;;;;;79.38;24.55;;;;;;;7.54;100.00;99324.81;4999955;28;20049;-81
2022/01/04 11:01:09;;;;;;;81.75;26.02;;;;;;;7.47;100.00;99307.28;4992875;28;20038;-81
2022/01/04 11:03:37;;;;;;;71.28;24.00;;;;;;;7.48;100.00;99300.00;5011974;28;20033;-81
2022/01/04 11:06:12;;;;;;;79.78;25.58;;;;;;;7.56;100.00;99305.63;5006113;28;20034;-83
2022/01/04 11:08:39;;;;;;;79.10;24.10;;;;;;;7.61;100.00;99322.38;4999744;28;20030;-82
2022/01/04 11:11:05;;;;;;;80.03;25.48;;;;;;;7.60;100.00;99317.09;4997369;28;20038;-83
2022/01/04 11:13:31;;;;;;;85.05;24.52;;;;;;;7.63;100.00;99314.06;5001668;28;20077;-85
2022/01/04 11:15:57;;;;;;;83.43;24.05;;;;;;;7.70;100.00;99329.69;5010148;28;20442;-84
2022/01/04 11:18:23;;;;;;;80.60;25.23;;;;;;;7.69;100.00;99327.09;5002198;28;20109;-82
2022/01/04 11:20:50;;;;;;;79.30;25.02;;;;;;;7.72;100.00;99325.00;4995395;28;20096;-86
2022/01/04 11:23:16;;;;;;;89.75;25.95;;;;;;;7.68;100.00;99317.25;4996150;28;20401;-84
2022/01/04 11:25:44;;;;;;;82.88;25.98;;;;;;;7.66;100.00;99295.59;4986937;28;20034;-87
2022/01/04 11:28:13;;;;;;;78.82;24.77;;;;;;;7.74;100.00;99311.22;4995446;28;20034;-83
2022/01/04 11:31:12;;;;;;;75.45;24.67;;;;;;;7.72;100.00;99311.38;5004068;28;20042;-84
2022/01/04 11:34:05;;;;;;;100.15;28.45;;;;;;;7.76;100.00;99322.84;5007027;28;20033;-85